Time;durP1;ratioP1;P1;durP2;ratioP2;P2;SDS_P1;SDS_P2;PMS_P1;PMS_P2;Temp;Humidity;BMP_temperature;BMP_pressure;BME280_temperature;BME280_humidity;BME280_pressure;Samples;Min_cycle;Max_cycle;Signal;HPM_P1;HPM_P2
2022/03/27 00:02:16;;;;;;;21.67;12.43;;;;;;;4.83;85.28;102967.00;10456073;28;20211;-78
2022/03/27 00:07:16;;;;;;;20.13;11.73;;;;;;;4.82;85.96;102960.91;10458939;28;20115;-80
2022/03/27 00:12:17;;;;;;;14.30;10.73;;;;;;;4.83;86.38;102964.41;10447991;28;20142;-78
2022/03/27 00:17:19;;;;;;;17.23;10.63;;;;;;;4.88;86.64;102978.78;10465037;28;20060;-77
2022/03/27 00:22:20;;;;;;;22.73;11.48;;;;;;;4.78;86.48;102970.78;10454830;28;20069;-76
2022/03/27 00:27:21;;;;;;;15.88;10.05;;;;;;;4.64;86.69;102977.13;10491229;28;20082;-77
2022/03/27 00:32:23;;;;;;;20.00;11.68;;;;;;;4.79;87.65;102973.56;10494461;28;20063;-75
2022/03/27 00:37:24;;;;;;;48.53;33.90;;;;;;;4.99;88.17;102973.03;10494993;28;20044;-76
2022/03/27 00:42:25;;;;;;;21.98;13.85;;;;;;;4.98;88.35;102975.47;10422326;28;20456;-76
2022/03/27 00:47:25;;;;;;;19.58;12.65;;;;;;;4.89;88.49;102975.44;10437608;28;20033;-76
2022/03/27 00:52:27;;;;;;;17.35;10.23;;;;;;;4.90;88.45;102973.75;10444345;28;20032;-75
2022/03/27 00:57:27;;;;;;;16.88;8.75;;;;;;;4.81;88.35;102972.03;10443744;28;20032;-73
2022/03/27 01:02:28;;;;;;;16.20;9.82;;;;;;;4.75;88.50;102970.47;10460663;28;20426;-77
2022/03/27 01:07:28;;;;;;;18.92;11.70;;;;;;;4.76;89.00;102968.06;10494439;28;20084;-75
2022/03/27 01:12:32;;;;;;;20.35;11.70;;;;;;;4.67;88.66;102960.19;10493492;28;20079;-78
2022/03/27 01:17:32;;;;;;;21.80;14.60;;;;;;;4.50;88.84;102958.44;10443587;28;20033;-80
2022/03/27 01:22:33;;;;;;;19.85;12.25;;;;;;;4.54;89.28;102955.41;10493969;28;20076;-74
2022/03/27 01:27:34;;;;;;;16.60;11.07;;;;;;;4.52;89.32;102950.81;10458675;28;20032;-77
2022/03/27 01:32:35;;;;;;;15.80;10.90;;;;;;;4.43;89.55;102950.75;10476030;28;20032;-74
2022/03/27 01:37:36;;;;;;;20.88;10.90;;;;;;;4.40;89.83;102945.25;10466666;28;20460;-74
2022/03/27 01:42:38;;;;;;;18.50;11.85;;;;;;;4.44;89.89;102944.81;10459230;28;20415;-72
2022/03/27 01:47:40;;;;;;;15.70;11.35;;;;;;;4.37;90.03;102956.19;10454013;28;20036;-72
2022/03/27 01:52:41;;;;;;;15.82;11.05;;;;;;;4.34;90.21;102940.31;10489386;28;20073;-73
2022/03/27 01:57:42;;;;;;;17.92;14.07;;;;;;;4.34;90.42;102944.59;10465606;28;20074;-73
2022/03/27 02:02:43;;;;;;;24.95;12.60;;;;;;;4.39;90.51;102933.94;10498280;28;20037;-74
2022/03/27 02:07:45;;;;;;;16.27;12.25;;;;;;;4.52;90.99;102940.44;10487168;28;20107;-74
2022/03/27 02:12:45;;;;;;;22.05;14.80;;;;;;;4.40;90.75;102940.97;10466715;28;20052;-75
2022/03/27 02:17:47;;;;;;;20.88;13.55;;;;;;;4.43;91.39;102942.06;10438708;28;20564;-74
2022/03/27 02:22:48;;;;;;;20.10;11.50;;;;;;;4.33;91.10;102943.66;10449274;28;20035;-74
2022/03/27 02:27:49;;;;;;;17.38;11.88;;;;;;;4.26;91.56;102942.13;10443157;28;20062;-74
2022/03/27 02:32:50;;;;;;;22.63;14.48;;;;;;;4.21;91.58;102940.72;10465550;28;20063;-74
2022/03/27 02:37:51;;;;;;;27.42;14.52;;;;;;;4.16;92.09;102938.34;10465171;28;20036;-74
2022/03/27 02:42:53;;;;;;;22.17;13.95;;;;;;;4.12;92.09;102944.91;10498801;28;20040;-74
2022/03/27 02:47:54;;;;;;;22.63;14.65;;;;;;;4.05;92.23;102932.94;10463060;28;20094;-74
2022/03/27 02:52:56;;;;;;;27.73;18.07;;;;;;;4.29;92.56;102932.81;10480965;28;20041;-74
2022/03/27 02:57:57;;;;;;;23.42;16.88;;;;;;;4.52;92.75;102932.66;10480371;28;20048;-74
2022/03/27 03:02:58;;;;;;;24.13;15.13;;;;;;;4.31;93.00;102936.50;10479600;28;20032;-74
2022/03/27 03:08:01;;;;;;;;;;;;;;;4.43;93.06;102929.09;10479533;28;20135;-74
2022/03/27 03:13:02;;;;;;;33.05;19.17;;;;;;;4.59;93.63;102936.81;10480686;28;19995;-74
2022/03/27 03:18:04;;;;;;;27.77;17.15;;;;;;;4.29;93.35;102931.13;10496602;28;20039;-74
2022/03/27 03:23:05;;;;;;;39.47;25.23;;;;;;;4.25;93.85;102929.91;10479977;28;20048;-74
2022/03/27 03:28:06;;;;;;;38.33;22.95;;;;;;;4.65;94.21;102930.59;10495777;28;20024;-78
2022/03/27 03:33:07;;;;;;;35.88;22.02;;;;;;;4.84;94.64;102923.06;10497999;28;20033;-75
2022/03/27 03:38:08;;;;;;;37.67;25.50;;;;;;;4.99;94.50;102922.81;10497145;28;20032;-74
2022/03/27 03:43:10;;;;;;;52.00;27.48;;;;;;;5.26;95.03;102929.91;10479744;28;20457;-74
2022/03/27 03:48:10;;;;;;;52.35;33.15;;;;;;;5.56;95.27;102910.41;10478505;28;20052;-74
2022/03/27 03:53:11;;;;;;;59.05;35.53;;;;;;;5.80;95.08;102918.84;10479172;28;20032;-74
2022/03/27 03:58:12;;;;;;;80.15;41.90;;;;;;;5.93;94.77;102918.41;10462230;28;20483;-74
2022/03/27 04:03:13;;;;;;;61.45;38.15;;;;;;;5.98;94.51;102911.97;10477450;28;20396;-74
2022/03/27 04:08:14;;;;;;;75.90;40.97;;;;;;;6.03;94.93;102920.25;10461447;28;20060;-74
2022/03/27 04:13:15;;;;;;;71.78;40.75;;;;;;;6.06;94.93;102923.16;10462026;28;20033;-74
2022/03/27 04:18:16;;;;;;;81.38;43.88;;;;;;;6.10;94.79;102919.19;10476297;28;20085;-74
2022/03/27 04:23:16;;;;;;;88.25;46.05;;;;;;;6.17;95.07;102926.81;10477486;28;20043;-75
2022/03/27 04:28:17;;;;;;;73.40;44.42;;;;;;;6.21;95.55;102918.56;10494503;28;20028;-74
2022/03/27 04:33:17;;;;;;;99.05;48.30;;;;;;;6.24;95.07;102913.66;10495037;28;20056;-74
2022/03/27 04:38:18;;;;;;;90.22;53.58;;;;;;;6.27;95.36;102919.16;10495409;28;20471;-74
2022/03/27 04:43:22;;;;;;;110.07;51.85;;;;;;;6.34;95.21;102919.75;10495051;28;20098;-74
2022/03/27 04:48:47;;;;;;;94.45;50.70;;;;;;;6.34;95.15;102923.25;10490131;28;20126;-74
2022/03/27 04:53:49;;;;;;;116.35;52.72;;;;;;;6.39;94.97;102927.22;10481782;28;20037;-74
2022/03/27 04:58:49;;;;;;;96.78;52.17;;;;;;;6.44;95.18;102930.31;10495790;28;20097;-73
2022/03/27 05:03:50;;;;;;;105.60;56.55;;;;;;;6.46;95.50;102937.47;10494558;28;20466;-73
2022/03/27 05:08:51;;;;;;;123.95;56.13;;;;;;;6.48;95.14;102940.22;10491416;28;20032;-73
2022/03/27 05:13:52;;;;;;;101.00;59.13;;;;;;;6.52;94.71;102946.63;10500111;28;20352;-73
2022/03/27 05:18:52;;;;;;;124.65;58.95;;;;;;;6.52;95.32;102944.97;10493555;28;20060;-74
2022/03/27 05:23:53;;;;;;;130.70;62.65;;;;;;;6.58;95.26;102949.84;10478280;28;20063;-74
2022/03/27 05:28:56;;;;;;;142.77;66.03;;;;;;;6.61;95.09;102944.94;10503432;28;20459;-75
2022/03/27 05:33:56;;;;;;;143.60;62.42;;;;;;;6.61;94.82;102948.47;10500289;28;20024;-75
2022/03/27 05:38:57;;;;;;;139.80;62.13;;;;;;;6.69;95.71;102950.91;10501586;28;20023;-74
2022/03/27 05:43:57;;;;;;;133.98;59.20;;;;;;;6.70;95.35;102961.44;10501395;28;20060;-73
2022/03/27 05:48:58;;;;;;;134.25;59.85;;;;;;;6.68;95.19;102959.47;10499468;28;20067;-74
2022/03/27 05:53:58;;;;;;;112.97;53.40;;;;;;;6.69;95.08;102959.59;10500934;28;20028;-74
2022/03/27 05:59:00;;;;;;;112.90;53.28;;;;;;;6.68;95.03;102965.56;10488856;28;20076;-74
2022/03/27 06:04:01;;;;;;;122.63;55.30;;;;;;;6.71;95.00;102963.28;10459836;28;20047;-74
2022/03/27 06:09:01;;;;;;;114.97;58.22;;;;;;;6.71;95.10;102971.06;10497023;28;20039;-74
2022/03/27 06:14:02;;;;;;;110.40;53.38;;;;;;;6.83;94.88;102984.38;10481115;28;20025;-74
2022/03/27 06:19:02;;;;;;;109.65;56.40;;;;;;;6.88;95.28;102992.63;10499540;28;20119;-74
2022/03/27 06:24:04;;;;;;;113.85;56.28;;;;;;;6.86;95.24;102992.50;10481916;28;20032;-74
2022/03/27 06:29:04;;;;;;;94.30;48.23;;;;;;;6.86;95.62;102995.09;10481649;28;20032;-74
2022/03/27 06:34:06;;;;;;;86.60;46.05;;;;;;;6.85;94.81;102994.94;10498041;28;20282;-73
2022/03/27 06:39:06;;;;;;;83.57;46.73;;;;;;;6.86;95.31;102994.16;10485013;28;20074;-74
2022/03/27 06:44:07;;;;;;;73.00;35.30;;;;;;;6.86;94.72;102988.94;10455865;28;20029;-74
2022/03/27 06:49:07;;;;;;;84.85;40.22;;;;;;;6.85;94.37;102994.94;10461859;28;20064;-74
2022/03/27 06:54:08;;;;;;;76.55;39.17;;;;;;;6.96;94.99;102989.06;10474935;28;20037;-74
2022/03/27 06:59:09;;;;;;;61.78;36.90;;;;;;;6.96;94.95;102986.47;10457844;28;20030;-75
2022/03/27 07:04:10;;;;;;;71.07;37.75;;;;;;;7.11;93.88;102989.66;10489195;28;20107;-75
2022/03/27 07:09:12;;;;;;;52.30;32.50;;;;;;;7.24;93.71;102993.41;10498653;28;20036;-75
2022/03/27 07:14:13;;;;;;;53.53;31.58;;;;;;;7.26;92.98;102991.88;10498118;28;20039;-75
2022/03/27 07:19:14;;;;;;;51.13;31.17;;;;;;;7.31;92.32;102990.63;10478778;28;20464;-75
2022/03/27 07:24:15;;;;;;;56.10;30.90;;;;;;;7.38;92.96;103006.06;10496997;28;20433;-74
2022/03/27 07:29:16;;;;;;;59.83;29.38;;;;;;;7.45;92.05;102994.53;10497725;28;20178;-75
2022/03/27 07:34:16;;;;;;;50.80;29.38;;;;;;;7.53;92.32;103006.59;10497088;28;20035;-74
2022/03/27 07:39:17;;;;;;;55.05;29.80;;;;;;;7.44;92.54;102995.28;10496269;28;20502;-75
2022/03/27 07:44:17;;;;;;;50.42;30.60;;;;;;;7.59;91.00;102993.22;10508721;28;20024;-74
2022/03/27 07:49:19;;;;;;;58.67;31.27;;;;;;;7.67;91.08;102996.53;10537239;28;20517;-73
2022/03/27 07:54:20;;;;;;;50.50;32.73;;;;;;;7.73;91.43;103003.25;10538978;28;20051;-74
2022/03/27 07:59:20;;;;;;;49.25;29.40;;;;;;;7.86;90.74;102999.19;10537579;28;20085;-73
2022/03/27 08:04:21;;;;;;;61.47;28.95;;;;;;;7.84;90.52;102995.53;10538747;28;20082;-73
2022/03/27 08:09:22;;;;;;;52.80;30.60;;;;;;;7.87;89.86;103001.03;10537362;28;20024;-74
2022/03/27 08:14:24;;;;;;;59.03;31.38;;;;;;;7.83;90.07;102996.31;10537366;28;20036;-74
2022/03/27 08:19:26;;;;;;;55.08;29.27;;;;;;;8.00;89.32;102997.84;10520359;28;20032;-73
2022/03/27 08:24:26;;;;;;;54.77;27.63;;;;;;;8.17;89.11;102999.41;10520488;28;20056;-75
2022/03/27 08:29:31;;;;;;;52.03;28.50;;;;;;;8.34;89.21;103000.94;10518748;28;20052;-74
2022/03/27 08:34:33;;;;;;;55.00;28.98;;;;;;;8.35;87.26;102997.56;10536923;28;20441;-74
2022/03/27 08:39:33;;;;;;;53.07;29.37;;;;;;;8.49;86.98;102994.53;10536751;28;20475;-74
2022/03/27 08:44:37;;;;;;;51.92;26.00;;;;;;;8.58;86.34;102984.03;10501721;28;20056;-75
2022/03/27 08:49:40;;;;;;;45.50;24.63;;;;;;;8.77;85.86;102980.44;10519539;28;20380;-74
2022/03/27 08:54:42;;;;;;;43.78;26.98;;;;;;;8.75;85.48;102982.00;10536179;28;20405;-74
2022/03/27 08:59:43;;;;;;;;;;;;;;;8.81;85.87;102995.59;10525692;28;20070;-74
2022/03/27 09:04:43;;;;;;;59.38;30.08;;;;;;;8.84;85.63;102994.94;10527015;28;20395;-75
2022/03/27 09:09:44;;;;;;;53.72;30.00;;;;;;;8.88;84.88;103003.19;10518874;28;20068;-74
2022/03/27 09:14:44;;;;;;;58.08;31.52;;;;;;;8.83;84.81;103001.88;10501953;28;20472;-74
2022/03/27 09:19:49;;;;;;;50.30;27.92;;;;;;;8.94;84.70;103011.59;10468053;28;20032;-74
2022/03/27 09:25:01;;;;;;;48.90;29.27;;;;;;;8.95;83.23;103010.81;10468393;28;20498;-74
2022/03/27 09:30:08;;;;;;;58.33;33.37;;;;;;;8.96;84.91;103016.94;10483960;28;20071;-75
2022/03/27 09:35:17;;;;;;;60.60;30.98;;;;;;;9.16;84.82;103013.47;10468669;28;20032;-75
2022/03/27 09:40:17;;;;;;;55.72;29.75;;;;;;;9.17;83.45;103022.22;10483091;28;20115;-74
2022/03/27 09:45:23;;;;;;;57.55;30.00;;;;;;;9.27;83.22;103016.13;10483106;28;20536;-74
2022/03/27 09:50:31;;;;;;;51.42;30.90;;;;;;;9.54;84.16;103007.13;10483553;28;20120;-74
2022/03/27 09:55:31;;;;;;;77.80;33.10;;;;;;;9.73;82.83;102998.25;10500615;28;20044;-74
2022/03/27 10:00:32;;;;;;;66.68;36.35;;;;;;;9.90;82.75;102997.06;10482666;28;20075;-74
2022/03/27 10:05:32;;;;;;;71.50;35.53;;;;;;;10.10;81.57;102988.28;10500401;28;20021;-74
2022/03/27 10:10:33;;;;;;;71.25;33.85;;;;;;;10.21;79.77;102976.09;10500759;28;20029;-74
2022/03/27 10:15:34;;;;;;;70.38;35.10;;;;;;;10.30;79.77;102974.25;10481582;28;20065;-74
2022/03/27 10:20:38;;;;;;;70.03;36.58;;;;;;;10.47;79.40;102974.75;10481723;28;20122;-74
2022/03/27 10:25:41;;;;;;;84.15;39.25;;;;;;;10.47;79.19;102975.66;10482015;28;20028;-74
2022/03/27 10:30:41;;;;;;;86.80;40.42;;;;;;;10.74;78.66;102973.44;10481492;28;20050;-74
2022/03/27 10:35:52;;;;;;;80.55;38.10;;;;;;;10.94;76.90;102963.66;10480871;28;20043;-74
2022/03/27 10:40:58;;;;;;;81.05;37.25;;;;;;;11.04;75.15;102963.59;10465110;28;20063;-75
2022/03/27 10:46:12;;;;;;;78.43;38.42;;;;;;;11.39;74.46;102956.69;10498637;28;20044;-75
2022/03/27 10:51:25;;;;;;;70.32;37.45;;;;;;;11.69;72.58;102957.22;10481084;28;20035;-74
2022/03/27 10:56:52;;;;;;;73.00;36.03;;;;;;;12.37;72.27;102948.28;10485097;28;20037;-75
2022/03/27 11:01:54;;;;;;;64.25;32.05;;;;;;;13.19;68.49;102936.63;10482970;28;20122;-75
2022/03/27 11:07:15;;;;;;;60.00;30.80;;;;;;;13.12;67.20;102937.00;10511178;28;20502;-75
2022/03/27 11:12:24;;;;;;;65.28;31.48;;;;;;;13.56;66.80;102925.16;10506281;28;20117;-75
2022/03/27 11:17:42;;;;;;;49.75;30.02;;;;;;;14.24;64.40;102918.22;10493426;28;20041;-75
2022/03/27 11:22:51;;;;;;;59.15;30.90;;;;;;;15.35;60.45;102916.41;10460595;28;20039;-75
2022/03/27 11:27:56;;;;;;;44.15;27.23;;;;;;;17.20;56.32;102902.16;10462845;28;20021;-75
2022/03/27 11:33:16;;;;;;;38.20;23.52;;;;;;;17.10;54.58;102903.38;10472766;28;20070;-76
2022/03/27 11:38:24;;;;;;;44.35;25.75;;;;;;;16.66;54.72;102894.84;10436404;28;20021;-76
2022/03/27 11:43:32;;;;;;;35.85;24.55;;;;;;;19.38;50.29;102885.19;10482253;28;20490;-76
2022/03/27 11:48:34;;;;;;;37.65;24.23;;;;;;;20.62;44.64;102886.66;10477305;28;20072;-76
2022/03/27 11:53:35;;;;;;;35.40;25.67;;;;;;;18.80;51.12;102876.41;10474012;28;20040;-77
2022/03/27 11:58:35;;;;;;;43.10;25.98;;;;;;;18.07;50.48;102877.41;10494482;28;20044;-77
2022/03/27 12:03:39;;;;;;;38.78;26.02;;;;;;;18.86;49.26;102879.34;10493212;28;20082;-76
2022/03/27 12:08:43;;;;;;;36.70;24.75;;;;;;;19.45;48.39;102863.38;10476566;28;20033;-77
2022/03/27 12:13:44;;;;;;;34.60;25.73;;;;;;;20.55;44.50;102853.59;10493248;28;20021;-77
2022/03/27 12:18:47;;;;;;;30.77;21.98;;;;;;;22.17;41.95;102835.16;10476079;28;20033;-77
2022/03/27 12:23:51;;;;;;;25.90;19.10;;;;;;;22.41;39.79;102835.00;10494501;28;20036;-81
2022/03/27 12:34:46;;;;;;;28.08;18.48;;;;;;;22.83;38.96;102825.56;10493451;28;20079;-77
2022/03/27 12:39:49;;;;;;;25.15;18.88;;;;;;;23.65;38.66;102816.13;10475571;28;20033;-75
2022/03/27 12:44:50;;;;;;;24.70;17.77;;;;;;;24.25;36.68;102798.78;10486083;28;20029;-75
2022/03/27 12:49:50;;;;;;;24.30;20.02;;;;;;;24.35;36.48;102789.19;10471318;28;20407;-77
2022/03/27 12:55:05;;;;;;;23.67;19.10;;;;;;;24.23;37.15;102787.13;10452073;28;20049;-76
2022/03/27 13:00:13;;;;;;;27.25;19.98;;;;;;;23.16;37.77;102788.16;10489565;28;20078;-76
2022/03/27 13:05:27;;;;;;;23.65;19.30;;;;;;;22.67;38.67;102784.19;10475903;28;20445;-77
2022/03/27 13:10:27;;;;;;;26.23;19.38;;;;;;;23.16;37.79;102777.47;10473728;28;20036;-74
2022/03/27 13:15:47;;;;;;;23.85;19.42;;;;;;;23.93;35.33;102766.84;10476336;28;20727;-75
2022/03/27 13:20:47;;;;;;;28.58;20.25;;;;;;;24.28;36.91;102761.38;10493918;28;20444;-75
2022/03/27 13:25:49;;;;;;;24.25;18.67;;;;;;;23.75;37.34;102752.19;10493756;28;20052;-75
2022/03/27 13:30:49;;;;;;;25.87;20.43;;;;;;;24.71;35.74;102747.97;10494675;28;20025;-75
2022/03/27 13:35:50;;;;;;;18.67;16.67;;;;;;;25.29;34.24;102725.75;10493605;28;20037;-75
2022/03/27 13:46:12;;;;;;;;;;;;;;;25.44;33.12;102714.34;10498378;28;20049;-74
2022/03/27 13:51:13;;;;;;;17.42;13.93;;;;;;;24.98;34.11;102713.63;10501680;28;20283;-75
2022/03/27 13:56:13;;;;;;;18.80;15.33;;;;;;;24.63;33.86;102712.13;10484263;28;20027;-75
2022/03/27 14:01:19;;;;;;;20.33;17.30;;;;;;;25.33;32.27;102699.88;10500241;28;20102;-75
2022/03/27 14:06:20;;;;;;;15.25;11.07;;;;;;;25.47;31.64;102694.78;10501402;28;20024;-75
2022/03/27 14:11:21;;;;;;;11.03;8.23;;;;;;;25.25;30.48;102682.78;10500860;28;20032;-75
2022/03/27 14:16:22;;;;;;;12.27;9.05;;;;;;;25.09;32.69;102689.72;10498275;28;20086;-75
2022/03/27 14:21:22;;;;;;;13.47;9.17;;;;;;;24.59;31.81;102684.38;10477622;28;20078;-75
2022/03/27 14:26:23;;;;;;;20.77;8.93;;;;;;;24.08;32.47;102671.81;10494908;28;20112;-75
2022/03/27 14:31:24;;;;;;;8.70;6.33;;;;;;;23.86;31.90;102666.91;10481568;28;20403;-75
2022/03/27 14:36:24;;;;;;;13.03;7.57;;;;;;;24.75;31.21;102663.25;10498343;28;20021;-75
2022/03/27 14:41:25;;;;;;;9.63;7.33;;;;;;;23.97;31.42;102659.09;10499112;28;20067;-75
2022/03/27 14:46:26;;;;;;;10.00;8.20;;;;;;;23.24;33.21;102649.53;10480876;28;20543;-75
2022/03/27 14:51:26;;;;;;;8.83;6.20;;;;;;;23.86;31.96;102649.94;10481805;28;20495;-75
2022/03/27 14:56:27;;;;;;;9.93;5.37;;;;;;;23.13;33.91;102643.00;10498103;28;20056;-75
2022/03/27 15:01:27;;;;;;;20.43;7.30;;;;;;;23.04;33.04;102641.00;10463188;28;20183;-75
2022/03/27 15:06:28;;;;;;;21.77;8.00;;;;;;;23.59;32.37;102638.72;10480880;28;20032;-75
2022/03/27 15:11:28;;;;;;;8.33;4.80;;;;;;;23.56;31.77;102636.00;10480097;28;20119;-75
2022/03/27 15:16:29;;;;;;;7.40;5.27;;;;;;;22.75;33.39;102634.97;10497624;28;20056;-75
2022/03/27 15:21:31;;;;;;;6.05;4.43;;;;;;;22.72;32.99;102638.44;10479775;28;20035;-75
2022/03/27 15:26:32;;;;;;;7.20;4.30;;;;;;;22.54;33.32;102630.88;10480264;28;20493;-75
2022/03/27 15:31:32;;;;;;;5.40;3.67;;;;;;;22.27;32.49;102629.25;10479204;28;20112;-75
2022/03/27 15:36:33;;;;;;;6.00;4.07;;;;;;;21.23;32.95;102620.88;10496419;28;20059;-75
2022/03/27 15:41:35;;;;;;;7.67;4.70;;;;;;;21.00;33.82;102613.06;10497117;28;20123;-75
2022/03/27 15:46:35;;;;;;;5.70;3.72;;;;;;;19.94;34.89;102617.41;10478231;28;20047;-75
2022/03/27 15:51:37;;;;;;;7.43;5.10;;;;;;;18.49;38.45;102626.69;10496716;28;20044;-75
2022/03/27 15:56:37;;;;;;;7.03;4.22;;;;;;;17.88;38.70;102623.09;10495643;28;20024;-75
2022/03/27 16:01:38;;;;;;;6.97;3.55;;;;;;;16.88;40.49;102625.44;10461357;28;20040;-75
2022/03/27 16:06:39;;;;;;;6.78;3.55;;;;;;;16.52;41.40;102624.47;10477720;28;20063;-75
2022/03/27 16:11:40;;;;;;;6.57;4.13;;;;;;;16.04;42.20;102622.03;10458991;28;20426;-75
2022/03/27 16:16:41;;;;;;;8.00;4.20;;;;;;;15.71;42.91;102626.44;10496510;28;20036;-74
2022/03/27 16:21:42;;;;;;;4.43;2.92;;;;;;;15.34;42.80;102623.47;10478048;28;20063;-75
2022/03/27 16:26:43;;;;;;;8.17;4.70;;;;;;;15.02;44.09;102619.91;10476599;28;20032;-74
2022/03/27 16:31:43;;;;;;;5.40;3.00;;;;;;;14.78;44.76;102615.97;10494982;28;20419;-74
2022/03/27 16:36:44;;;;;;;7.78;4.82;;;;;;;14.70;46.52;102614.63;10494806;28;20111;-74
2022/03/27 16:41:44;;;;;;;8.50;4.82;;;;;;;14.54;46.07;102607.47;10475901;28;20493;-74
2022/03/27 16:46:45;;;;;;;8.13;4.85;;;;;;;14.35;46.04;102611.66;10477030;28;20076;-74
2022/03/27 16:51:45;;;;;;;6.97;4.80;;;;;;;14.22;46.46;102603.81;10496083;28;20035;-74
2022/03/27 16:56:46;;;;;;;8.10;4.97;;;;;;;14.07;46.55;102599.44;10495015;28;20072;-74
2022/03/27 17:01:47;;;;;;;11.60;6.30;;;;;;;13.90;47.76;102598.44;10491066;28;20032;-75
2022/03/27 17:06:47;;;;;;;10.48;6.72;;;;;;;13.75;47.58;102603.63;10493908;28;20105;-76
2022/03/27 17:11:48;;;;;;;10.98;6.25;;;;;;;13.51;48.51;102598.66;10492781;28;20483;-76
2022/03/27 17:16:48;;;;;;;15.60;7.85;;;;;;;13.20;49.10;102595.75;10494164;28;20106;-76
2022/03/27 17:21:49;;;;;;;13.13;8.20;;;;;;;12.90;50.76;102599.09;10481813;28;20029;-76
2022/03/27 17:26:50;;;;;;;12.80;7.00;;;;;;;12.63;50.90;102604.34;10489531;28;20131;-77
2022/03/27 17:31:51;;;;;;;16.27;8.55;;;;;;;12.30;52.31;102611.75;10471266;28;20797;-77
2022/03/27 17:36:54;;;;;;;11.27;8.30;;;;;;;11.94;52.94;102608.38;10481045;28;20063;-76
2022/03/27 17:41:55;;;;;;;13.55;7.38;;;;;;;11.38;55.46;102608.81;10499546;28;20141;-77
2022/03/27 17:52:21;;;;;;;12.70;7.82;;;;;;;10.56;57.48;102612.47;10497301;28;20032;-76
2022/03/27 17:57:22;;;;;;;53.10;32.03;;;;;;;10.01;58.70;102609.13;10479212;28;20052;-75
2022/03/27 18:02:23;;;;;;;22.25;13.20;;;;;;;9.59;60.18;102605.84;10477889;28;20041;-76
2022/03/27 18:07:23;;;;;;;23.70;11.77;;;;;;;9.19;60.87;102611.41;10498793;28;20076;-76
2022/03/27 18:12:24;;;;;;;18.55;8.57;;;;;;;9.03;60.75;102611.84;10497446;28;20024;-76
2022/03/27 18:17:25;;;;;;;19.27;9.90;;;;;;;8.68;62.42;102616.78;10497806;28;20045;-77
2022/03/27 18:22:26;;;;;;;18.10;10.20;;;;;;;8.29;63.15;102624.84;10497056;28;20067;-77
2022/03/27 18:27:29;;;;;;;19.17;9.48;;;;;;;7.96;64.66;102623.78;10497868;28;20075;-77
2022/03/27 18:32:31;;;;;;;15.80;8.32;;;;;;;7.84;64.90;102618.41;10494927;28;20025;-77
2022/03/27 18:37:31;;;;;;;13.10;8.60;;;;;;;7.62;66.12;102632.16;10496029;28;20040;-77
2022/03/27 18:42:32;;;;;;;14.27;8.73;;;;;;;7.36;66.32;102632.50;10479394;28;20041;-77
2022/03/27 18:47:32;;;;;;;16.65;10.38;;;;;;;7.18;67.36;102645.69;10478134;28;20064;-77
2022/03/27 18:52:33;;;;;;;15.82;9.52;;;;;;;7.11;68.81;102638.09;10494999;28;20430;-77
2022/03/27 18:57:34;;;;;;;23.40;11.23;;;;;;;6.95;69.24;102634.88;10496711;28;20466;-77
2022/03/27 19:02:35;;;;;;;19.50;11.63;;;;;;;6.76;70.15;102635.81;10495231;28;20052;-78
2022/03/27 19:07:35;;;;;;;17.40;9.70;;;;;;;6.74;70.71;102626.94;10495408;28;20024;-77
2022/03/27 19:12:36;;;;;;;16.98;9.90;;;;;;;6.73;71.44;102617.31;10496761;28;20056;-77
2022/03/27 19:17:45;;;;;;;25.70;11.05;;;;;;;6.67;71.04;102641.06;10495334;28;20499;-77
2022/03/27 19:22:57;;;;;;;27.88;11.48;;;;;;;6.57;71.86;102641.00;10493403;28;20036;-77
2022/03/27 19:28:01;;;;;;;23.80;13.83;;;;;;;6.41;71.92;102644.78;10461115;28;20111;-77
2022/03/27 19:33:02;;;;;;;21.30;12.10;;;;;;;6.28;72.23;102642.72;10494198;28;20541;-77
2022/03/27 19:38:02;;;;;;;22.50;12.70;;;;;;;6.12;72.16;102639.47;10492667;28;20103;-78
2022/03/27 19:43:03;;;;;;;23.73;12.13;;;;;;;5.99;73.14;102643.47;10493898;28;20037;-78
2022/03/27 19:48:04;;;;;;;18.55;11.90;;;;;;;5.82;73.41;102627.97;10494033;28;20488;-77
2022/03/27 19:53:05;;;;;;;26.02;12.02;;;;;;;5.76;74.05;102630.88;10494180;28;20032;-77
2022/03/27 19:58:05;;;;;;;18.80;10.40;;;;;;;5.64;74.45;102633.22;10492660;28;20025;-77
2022/03/27 20:03:06;;;;;;;23.00;11.75;;;;;;;5.56;75.43;102645.47;10493015;28;20076;-77
2022/03/27 20:08:07;;;;;;;22.65;9.85;;;;;;;5.47;76.53;102647.16;10493905;28;20028;-77
2022/03/27 20:13:08;;;;;;;20.98;11.23;;;;;;;5.41;76.71;102638.78;10475216;28;20533;-77
2022/03/27 20:18:08;;;;;;;20.15;11.55;;;;;;;5.33;76.98;102634.53;10494302;28;20031;-77
2022/03/27 20:23:09;;;;;;;24.27;13.15;;;;;;;5.33;77.22;102637.13;10494199;28;20372;-77
2022/03/27 20:28:09;;;;;;;23.95;11.32;;;;;;;5.27;77.19;102633.16;10492832;28;20170;-77
2022/03/27 20:33:11;;;;;;;27.60;15.10;;;;;;;5.12;77.59;102624.81;10493458;28;20071;-78
2022/03/27 20:38:14;;;;;;;24.38;12.23;;;;;;;5.10;78.18;102633.19;10494642;28;20037;-77
2022/03/27 20:43:15;;;;;;;23.58;13.27;;;;;;;5.08;78.35;102630.47;10494957;28;20471;-78
2022/03/27 20:48:16;;;;;;;36.47;14.52;;;;;;;4.98;78.44;102628.63;10494242;28;20045;-77
2022/03/27 20:53:16;;;;;;;26.92;12.80;;;;;;;4.91;79.03;102627.88;10478454;28;20166;-78
2022/03/27 20:58:17;;;;;;;26.92;13.07;;;;;;;4.88;79.25;102632.78;10468988;28;20034;-77
2022/03/27 21:03:17;;;;;;;22.20;12.15;;;;;;;4.82;79.70;102630.47;10502631;28;20043;-77
2022/03/27 21:08:18;;;;;;;28.70;12.82;;;;;;;4.69;80.16;102621.47;10503094;28;20032;-77
2022/03/27 21:13:18;;;;;;;26.92;13.77;;;;;;;4.61;80.08;102618.88;10501939;28;20047;-77
2022/03/27 21:18:19;;;;;;;28.10;13.80;;;;;;;4.49;80.46;102614.31;10485865;28;20056;-77
2022/03/27 21:23:19;;;;;;;21.77;13.00;;;;;;;4.45;80.68;102616.41;10501858;28;20086;-77
2022/03/27 21:28:20;;;;;;;25.58;13.93;;;;;;;4.44;80.79;102620.72;10501196;28;20068;-77
2022/03/27 21:33:21;;;;;;;23.42;15.15;;;;;;;4.46;81.03;102611.41;10502651;28;20079;-77
2022/03/27 21:38:21;;;;;;;27.67;16.85;;;;;;;4.44;81.31;102612.00;10484123;28;20060;-77
2022/03/27 21:43:22;;;;;;;31.02;15.13;;;;;;;4.45;81.21;102614.75;10500377;28;20094;-77
2022/03/27 21:48:23;;;;;;;26.08;14.35;;;;;;;4.42;81.78;102609.25;10501083;28;20041;-77
2022/03/27 21:53:23;;;;;;;27.80;12.98;;;;;;;4.37;81.96;102605.28;10501756;28;20075;-77
2022/03/27 21:58:24;;;;;;;29.35;15.30;;;;;;;4.34;82.25;102605.00;10481828;28;20071;-77
2022/03/27 22:03:24;;;;;;;24.42;14.57;;;;;;;4.24;82.30;102588.50;10500061;28;20037;-77
2022/03/27 22:08:25;;;;;;;25.08;16.38;;;;;;;4.08;82.68;102585.13;10500961;28;20020;-78
2022/03/27 22:13:25;;;;;;;29.55;15.32;;;;;;;3.99;82.88;102584.19;10481289;28;20055;-77
2022/03/27 22:18:26;;;;;;;32.78;15.40;;;;;;;3.94;83.17;102574.28;10499710;28;20115;-77
2022/03/27 22:23:26;;;;;;;25.98;15.05;;;;;;;3.87;83.87;102566.63;10482170;28;20029;-77
2022/03/27 22:28:27;;;;;;;26.38;14.70;;;;;;;3.80;84.11;102570.25;10481283;28;20036;-77
2022/03/27 22:33:27;;;;;;;27.95;12.20;;;;;;;3.75;84.54;102567.97;10498623;28;20081;-77
2022/03/27 22:38:28;;;;;;;31.77;15.02;;;;;;;3.66;84.46;102562.75;10481415;28;20032;-77
2022/03/27 22:43:28;;;;;;;26.13;14.43;;;;;;;3.61;84.95;102556.19;10481540;28;20555;-77
2022/03/27 22:48:29;;;;;;;26.70;14.13;;;;;;;3.59;85.49;102560.28;10480021;28;20048;-77
2022/03/27 22:53:29;;;;;;;28.42;16.77;;;;;;;3.48;86.03;102554.91;10491326;28;20129;-77
2022/03/27 22:58:30;;;;;;;29.15;15.30;;;;;;;3.44;86.42;102554.44;10457249;28;20107;-77
2022/03/27 23:03:31;;;;;;;31.05;15.63;;;;;;;3.35;86.10;102551.81;10479302;28;20048;-76
2022/03/27 23:08:31;;;;;;;31.33;17.17;;;;;;;3.28;86.11;102545.09;10498321;28;20056;-76